sensor_id;sensor_type;location;lat;lon;timestamp;temperature;humidity
30244;DHT22;61465;53.652;9.792;2022-07-09T00:02:04;16.40;86.30
30244;DHT22;61465;53.652;9.792;2022-07-09T00:04:30;16.30;86.30
30244;DHT22;61465;53.652;9.792;2022-07-09T00:06:55;16.40;86.40
30244;DHT22;61465;53.652;9.792;2022-07-09T00:09:21;16.30;86.50
30244;DHT22;61465;53.652;9.792;2022-07-09T00:11:47;16.30;86.40
30244;DHT22;61465;53.652;9.792;2022-07-09T00:14:12;16.30;86.50
30244;DHT22;61465;53.652;9.792;2022-07-09T00:16:38;16.30;86.60
30244;DHT22;61465;53.652;9.792;2022-07-09T00:19:04;16.30;86.70
30244;DHT22;61465;53.652;9.792;2022-07-09T00:21:30;16.30;86.70
30244;DHT22;61465;53.652;9.792;2022-07-09T00:23:55;16.30;86.80
30244;DHT22;61465;53.652;9.792;2022-07-09T00:26:21;16.30;86.90
30244;DHT22;61465;53.652;9.792;2022-07-09T00:28:46;16.30;87.00
30244;DHT22;61465;53.652;9.792;2022-07-09T00:31:12;16.30;87.10
30244;DHT22;61465;53.652;9.792;2022-07-09T00:33:38;16.30;87.20
30244;DHT22;61465;53.652;9.792;2022-07-09T00:36:04;16.30;87.30
30244;DHT22;61465;53.652;9.792;2022-07-09T00:38:29;16.30;87.30
30244;DHT22;61465;53.652;9.792;2022-07-09T00:40:55;16.20;87.20
30244;DHT22;61465;53.652;9.792;2022-07-09T00:43:22;16.20;87.20
30244;DHT22;61465;53.652;9.792;2022-07-09T00:45:48;16.20;87.30
30244;DHT22;61465;53.652;9.792;2022-07-09T00:48:14;16.20;87.40
30244;DHT22;61465;53.652;9.792;2022-07-09T00:50:41;16.20;87.50
30244;DHT22;61465;53.652;9.792;2022-07-09T00:53:13;16.20;87.50
30244;DHT22;61465;53.652;9.792;2022-07-09T00:55:39;16.10;87.60
30244;DHT22;61465;53.652;9.792;2022-07-09T00:58:06;16.20;87.70
30244;DHT22;61465;53.652;9.792;2022-07-09T01:00:33;16.10;87.60
30244;DHT22;61465;53.652;9.792;2022-07-09T01:02:59;16.10;87.60
30244;DHT22;61465;53.652;9.792;2022-07-09T01:05:24;16.10;87.80
30244;DHT22;61465;53.652;9.792;2022-07-09T01:07:50;16.00;87.70
30244;DHT22;61465;53.652;9.792;2022-07-09T01:10:16;16.00;87.80
30244;DHT22;61465;53.652;9.792;2022-07-09T01:12:42;16.00;87.90
30244;DHT22;61465;53.652;9.792;2022-07-09T01:15:08;16.00;87.90
30244;DHT22;61465;53.652;9.792;2022-07-09T01:17:38;16.00;88.10
30244;DHT22;61465;53.652;9.792;2022-07-09T01:20:04;16.00;88.10
30244;DHT22;61465;53.652;9.792;2022-07-09T01:22:30;16.00;88.30
30244;DHT22;61465;53.652;9.792;2022-07-09T01:24:56;16.00;88.80
30244;DHT22;61465;53.652;9.792;2022-07-09T01:27:22;16.00;88.50
30244;DHT22;61465;53.652;9.792;2022-07-09T01:29:48;15.90;88.50
30244;DHT22;61465;53.652;9.792;2022-07-09T01:32:18;15.90;88.60
30244;DHT22;61465;53.652;9.792;2022-07-09T01:35:00;15.90;88.70
30244;DHT22;61465;53.652;9.792;2022-07-09T01:37:27;15.90;88.80
30244;DHT22;61465;53.652;9.792;2022-07-09T01:39:52;15.90;88.90
30244;DHT22;61465;53.652;9.792;2022-07-09T01:42:21;16.00;89.10
30244;DHT22;61465;53.652;9.792;2022-07-09T01:44:47;15.90;89.10
30244;DHT22;61465;53.652;9.792;2022-07-09T01:47:13;15.90;89.20
30244;DHT22;61465;53.652;9.792;2022-07-09T01:49:40;15.90;87.50
30244;DHT22;61465;53.652;9.792;2022-07-09T01:52:06;15.90;89.20
30244;DHT22;61465;53.652;9.792;2022-07-09T01:54:32;15.90;89.40
30244;DHT22;61465;53.652;9.792;2022-07-09T01:56:58;15.90;89.60
30244;DHT22;61465;53.652;9.792;2022-07-09T01:59:23;15.90;89.60
30244;DHT22;61465;53.652;9.792;2022-07-09T02:01:49;15.90;89.70
30244;DHT22;61465;53.652;9.792;2022-07-09T02:04:14;15.90;89.70
30244;DHT22;61465;53.652;9.792;2022-07-09T02:06:40;15.90;89.80
30244;DHT22;61465;53.652;9.792;2022-07-09T02:09:05;15.90;90.00
30244;DHT22;61465;53.652;9.792;2022-07-09T02:11:31;15.90;90.00
30244;DHT22;61465;53.652;9.792;2022-07-09T02:13:57;15.90;90.00
30244;DHT22;61465;53.652;9.792;2022-07-09T02:16:22;15.90;90.10
30244;DHT22;61465;53.652;9.792;2022-07-09T02:18:48;15.90;90.10
30244;DHT22;61465;53.652;9.792;2022-07-09T02:21:13;16.00;90.20
30244;DHT22;61465;53.652;9.792;2022-07-09T02:23:39;16.00;90.30
30244;DHT22;61465;53.652;9.792;2022-07-09T02:26:04;16.00;90.30
30244;DHT22;61465;53.652;9.792;2022-07-09T02:28:30;16.00;90.30
30244;DHT22;61465;53.652;9.792;2022-07-09T02:30:55;16.00;90.40
30244;DHT22;61465;53.652;9.792;2022-07-09T02:33:23;16.00;90.40
30244;DHT22;61465;53.652;9.792;2022-07-09T02:35:49;16.00;90.50
30244;DHT22;61465;53.652;9.792;2022-07-09T02:38:14;16.00;90.50
30244;DHT22;61465;53.652;9.792;2022-07-09T02:40:40;16.00;90.50
30244;DHT22;61465;53.652;9.792;2022-07-09T02:43:06;16.00;90.50
30244;DHT22;61465;53.652;9.792;2022-07-09T02:45:31;16.00;90.50
30244;DHT22;61465;53.652;9.792;2022-07-09T02:47:57;16.00;90.60
30244;DHT22;61465;53.652;9.792;2022-07-09T02:50:22;16.10;90.60
30244;DHT22;61465;53.652;9.792;2022-07-09T02:52:48;16.10;90.70
30244;DHT22;61465;53.652;9.792;2022-07-09T02:55:13;16.10;90.70
30244;DHT22;61465;53.652;9.792;2022-07-09T02:57:39;16.10;90.70
30244;DHT22;61465;53.652;9.792;2022-07-09T03:00:05;16.10;90.80
30244;DHT22;61465;53.652;9.792;2022-07-09T03:02:31;16.20;90.80
30244;DHT22;61465;53.652;9.792;2022-07-09T03:04:57;16.10;90.90
30244;DHT22;61465;53.652;9.792;2022-07-09T03:07:22;16.10;90.90
30244;DHT22;61465;53.652;9.792;2022-07-09T03:09:49;16.10;90.90
30244;DHT22;61465;53.652;9.792;2022-07-09T03:12:14;16.20;91.00
30244;DHT22;61465;53.652;9.792;2022-07-09T03:14:40;16.10;91.00
30244;DHT22;61465;53.652;9.792;2022-07-09T03:17:06;16.20;91.00
30244;DHT22;61465;53.652;9.792;2022-07-09T03:19:32;16.10;91.00
30244;DHT22;61465;53.652;9.792;2022-07-09T03:21:57;16.20;91.10
30244;DHT22;61465;53.652;9.792;2022-07-09T03:24:23;16.20;91.10
30244;DHT22;61465;53.652;9.792;2022-07-09T03:26:48;16.10;91.10
30244;DHT22;61465;53.652;9.792;2022-07-09T03:29:14;16.20;91.10
30244;DHT22;61465;53.652;9.792;2022-07-09T03:31:40;16.10;91.10
30244;DHT22;61465;53.652;9.792;2022-07-09T03:34:05;16.20;91.10
30244;DHT22;61465;53.652;9.792;2022-07-09T03:36:31;16.10;91.10
30244;DHT22;61465;53.652;9.792;2022-07-09T03:38:57;16.10;91.10
30244;DHT22;61465;53.652;9.792;2022-07-09T03:41:22;16.10;91.10
30244;DHT22;61465;53.652;9.792;2022-07-09T03:43:48;16.10;91.20
30244;DHT22;61465;53.652;9.792;2022-07-09T03:46:14;16.10;91.20
30244;DHT22;61465;53.652;9.792;2022-07-09T03:48:39;16.10;91.30
30244;DHT22;61465;53.652;9.792;2022-07-09T03:51:06;16.10;91.30
30244;DHT22;61465;53.652;9.792;2022-07-09T03:53:32;16.10;91.30
30244;DHT22;61465;53.652;9.792;2022-07-09T03:55:58;16.10;91.30
30244;DHT22;61465;53.652;9.792;2022-07-09T03:58:23;16.10;91.30
30244;DHT22;61465;53.652;9.792;2022-07-09T04:00:49;16.10;91.30
30244;DHT22;61465;53.652;9.792;2022-07-09T04:03:14;16.10;91.40
30244;DHT22;61465;53.652;9.792;2022-07-09T04:05:40;16.10;91.40
30244;DHT22;61465;53.652;9.792;2022-07-09T04:08:07;16.10;91.40
30244;DHT22;61465;53.652;9.792;2022-07-09T04:10:32;16.10;91.50
30244;DHT22;61465;53.652;9.792;2022-07-09T04:12:58;16.10;91.50
30244;DHT22;61465;53.652;9.792;2022-07-09T04:15:24;16.10;91.60
30244;DHT22;61465;53.652;9.792;2022-07-09T04:17:49;16.10;91.60
30244;DHT22;61465;53.652;9.792;2022-07-09T04:20:15;16.10;91.60
30244;DHT22;61465;53.652;9.792;2022-07-09T04:22:41;16.10;91.70
30244;DHT22;61465;53.652;9.792;2022-07-09T04:25:06;16.10;91.70
30244;DHT22;61465;53.652;9.792;2022-07-09T04:27:32;16.10;91.80
30244;DHT22;61465;53.652;9.792;2022-07-09T04:29:59;16.10;91.80
30244;DHT22;61465;53.652;9.792;2022-07-09T04:32:24;16.20;91.90
30244;DHT22;61465;53.652;9.792;2022-07-09T04:34:50;16.20;91.90
30244;DHT22;61465;53.652;9.792;2022-07-09T04:37:16;16.20;91.90
30244;DHT22;61465;53.652;9.792;2022-07-09T04:39:41;16.20;91.90
30244;DHT22;61465;53.652;9.792;2022-07-09T04:42:07;16.20;91.90
30244;DHT22;61465;53.652;9.792;2022-07-09T04:44:32;16.20;92.20
30244;DHT22;61465;53.652;9.792;2022-07-09T04:46:58;16.30;92.10
30244;DHT22;61465;53.652;9.792;2022-07-09T04:49:23;16.20;92.10
30244;DHT22;61465;53.652;9.792;2022-07-09T04:51:49;16.20;92.10
30244;DHT22;61465;53.652;9.792;2022-07-09T04:54:15;16.30;92.20
30244;DHT22;61465;53.652;9.792;2022-07-09T04:56:41;16.30;92.20
30244;DHT22;61465;53.652;9.792;2022-07-09T04:59:06;16.40;92.30
30244;DHT22;61465;53.652;9.792;2022-07-09T05:01:33;16.40;92.30
30244;DHT22;61465;53.652;9.792;2022-07-09T05:03:58;16.40;92.40
30244;DHT22;61465;53.652;9.792;2022-07-09T05:06:24;16.40;92.40
30244;DHT22;61465;53.652;9.792;2022-07-09T05:08:50;16.50;92.40
30244;DHT22;61465;53.652;9.792;2022-07-09T05:11:16;16.50;92.40
30244;DHT22;61465;53.652;9.792;2022-07-09T05:13:42;16.50;92.50
30244;DHT22;61465;53.652;9.792;2022-07-09T05:16:08;16.60;92.60
30244;DHT22;61465;53.652;9.792;2022-07-09T05:18:34;16.60;92.60
30244;DHT22;61465;53.652;9.792;2022-07-09T05:21:00;16.60;92.60
30244;DHT22;61465;53.652;9.792;2022-07-09T05:23:27;16.60;92.60
30244;DHT22;61465;53.652;9.792;2022-07-09T05:25:53;16.70;92.70
30244;DHT22;61465;53.652;9.792;2022-07-09T05:28:19;16.70;92.80
30244;DHT22;61465;53.652;9.792;2022-07-09T05:30:44;16.70;92.80
30244;DHT22;61465;53.652;9.792;2022-07-09T05:33:10;16.70;92.80
30244;DHT22;61465;53.652;9.792;2022-07-09T05:35:36;16.70;92.90
30244;DHT22;61465;53.652;9.792;2022-07-09T05:38:01;16.80;92.90
30244;DHT22;61465;53.652;9.792;2022-07-09T05:40:27;16.80;92.90
30244;DHT22;61465;53.652;9.792;2022-07-09T05:42:52;16.80;92.90
30244;DHT22;61465;53.652;9.792;2022-07-09T05:45:20;16.80;92.90
30244;DHT22;61465;53.652;9.792;2022-07-09T05:47:45;16.90;93.00
30244;DHT22;61465;53.652;9.792;2022-07-09T05:50:11;16.90;93.00
30244;DHT22;61465;53.652;9.792;2022-07-09T05:52:37;16.90;93.00
30244;DHT22;61465;53.652;9.792;2022-07-09T05:55:02;17.00;93.00
30244;DHT22;61465;53.652;9.792;2022-07-09T05:57:31;17.00;93.10
30244;DHT22;61465;53.652;9.792;2022-07-09T05:59:57;17.00;93.10
30244;DHT22;61465;53.652;9.792;2022-07-09T06:02:23;17.10;93.40
30244;DHT22;61465;53.652;9.792;2022-07-09T06:04:49;17.10;93.10
30244;DHT22;61465;53.652;9.792;2022-07-09T06:07:15;17.20;93.20
30244;DHT22;61465;53.652;9.792;2022-07-09T06:09:41;17.20;93.20
30244;DHT22;61465;53.652;9.792;2022-07-09T06:12:06;17.30;93.30
30244;DHT22;61465;53.652;9.792;2022-07-09T06:14:33;17.40;93.30
30244;DHT22;61465;53.652;9.792;2022-07-09T06:16:58;17.40;93.30
30244;DHT22;61465;53.652;9.792;2022-07-09T06:19:33;17.50;93.40
30244;DHT22;61465;53.652;9.792;2022-07-09T06:21:58;17.60;93.40
30244;DHT22;61465;53.652;9.792;2022-07-09T06:24:24;17.60;93.40
30244;DHT22;61465;53.652;9.792;2022-07-09T06:26:50;17.70;93.40
30244;DHT22;61465;53.652;9.792;2022-07-09T06:29:15;17.80;93.40
30244;DHT22;61465;53.652;9.792;2022-07-09T06:31:41;17.80;93.50
30244;DHT22;61465;53.652;9.792;2022-07-09T06:34:07;18.00;93.50
30244;DHT22;61465;53.652;9.792;2022-07-09T06:36:32;18.10;93.60
30244;DHT22;61465;53.652;9.792;2022-07-09T06:38:58;18.10;93.50
30244;DHT22;61465;53.652;9.792;2022-07-09T06:41:42;18.20;93.60
30244;DHT22;61465;53.652;9.792;2022-07-09T06:44:07;18.20;93.60
30244;DHT22;61465;53.652;9.792;2022-07-09T06:46:33;18.30;93.60
30244;DHT22;61465;53.652;9.792;2022-07-09T06:49:00;18.40;93.70
30244;DHT22;61465;53.652;9.792;2022-07-09T06:51:26;18.60;93.70
30244;DHT22;61465;53.652;9.792;2022-07-09T06:53:51;18.70;93.70
30244;DHT22;61465;53.652;9.792;2022-07-09T06:56:17;18.80;93.70
30244;DHT22;61465;53.652;9.792;2022-07-09T06:58:42;18.90;93.70
30244;DHT22;61465;53.652;9.792;2022-07-09T07:01:08;18.90;93.70
30244;DHT22;61465;53.652;9.792;2022-07-09T07:03:33;19.00;93.70
30244;DHT22;61465;53.652;9.792;2022-07-09T07:05:59;19.10;93.70
30244;DHT22;61465;53.652;9.792;2022-07-09T07:08:24;19.10;93.70
30244;DHT22;61465;53.652;9.792;2022-07-09T07:10:50;19.20;93.70
30244;DHT22;61465;53.652;9.792;2022-07-09T07:13:15;19.30;93.70
30244;DHT22;61465;53.652;9.792;2022-07-09T07:15:41;19.40;93.60
30244;DHT22;61465;53.652;9.792;2022-07-09T07:18:06;19.50;93.70
30244;DHT22;61465;53.652;9.792;2022-07-09T07:20:32;19.60;93.80
30244;DHT22;61465;53.652;9.792;2022-07-09T07:22:58;19.70;93.70
30244;DHT22;61465;53.652;9.792;2022-07-09T07:25:23;19.80;93.70
30244;DHT22;61465;53.652;9.792;2022-07-09T07:27:49;19.90;93.70
30244;DHT22;61465;53.652;9.792;2022-07-09T07:30:15;20.00;93.80
30244;DHT22;61465;53.652;9.792;2022-07-09T07:32:43;20.10;93.80
30244;DHT22;61465;53.652;9.792;2022-07-09T07:35:09;20.30;93.70
30244;DHT22;61465;53.652;9.792;2022-07-09T07:37:35;20.40;93.80
30244;DHT22;61465;53.652;9.792;2022-07-09T07:40:00;20.70;93.80
30244;DHT22;61465;53.652;9.792;2022-07-09T07:42:26;21.10;93.90
30244;DHT22;61465;53.652;9.792;2022-07-09T07:44:51;21.30;93.70
30244;DHT22;61465;53.652;9.792;2022-07-09T07:47:17;21.40;93.50
30244;DHT22;61465;53.652;9.792;2022-07-09T07:49:42;21.50;93.50
30244;DHT22;61465;53.652;9.792;2022-07-09T07:52:08;21.60;93.30
30244;DHT22;61465;53.652;9.792;2022-07-09T07:54:33;21.60;93.10
30244;DHT22;61465;53.652;9.792;2022-07-09T07:56:59;21.70;93.20
30244;DHT22;61465;53.652;9.792;2022-07-09T07:59:25;21.70;93.00
30244;DHT22;61465;53.652;9.792;2022-07-09T08:01:50;21.70;92.90
30244;DHT22;61465;53.652;9.792;2022-07-09T08:04:16;21.70;92.90
30244;DHT22;61465;53.652;9.792;2022-07-09T08:06:41;21.60;93.00
30244;DHT22;61465;53.652;9.792;2022-07-09T08:09:07;21.60;92.70
30244;DHT22;61465;53.652;9.792;2022-07-09T08:11:33;21.60;92.70
30244;DHT22;61465;53.652;9.792;2022-07-09T08:13:59;21.70;92.70
30244;DHT22;61465;53.652;9.792;2022-07-09T08:16:24;21.70;92.60
30244;DHT22;61465;53.652;9.792;2022-07-09T08:18:50;21.70;92.40
30244;DHT22;61465;53.652;9.792;2022-07-09T08:21:15;21.60;92.30
30244;DHT22;61465;53.652;9.792;2022-07-09T08:23:41;21.60;92.30
30244;DHT22;61465;53.652;9.792;2022-07-09T08:26:24;22.10;92.70
30244;DHT22;61465;53.652;9.792;2022-07-09T08:28:50;22.60;92.70
30244;DHT22;61465;53.652;9.792;2022-07-09T08:31:17;23.60;92.90
30244;DHT22;61465;53.652;9.792;2022-07-09T08:33:43;24.70;92.50
30244;DHT22;61465;53.652;9.792;2022-07-09T08:36:09;24.90;91.50
30244;DHT22;61465;53.652;9.792;2022-07-09T08:38:34;24.60;91.40
30244;DHT22;61465;53.652;9.792;2022-07-09T08:41:01;24.70;92.10
30244;DHT22;61465;53.652;9.792;2022-07-09T08:43:36;25.10;91.40
30244;DHT22;61465;53.652;9.792;2022-07-09T08:46:03;25.20;91.00
30244;DHT22;61465;53.652;9.792;2022-07-09T08:48:33;25.10;91.10
30244;DHT22;61465;53.652;9.792;2022-07-09T08:50:59;25.90;91.70
30244;DHT22;61465;53.652;9.792;2022-07-09T08:53:25;27.00;91.40
30244;DHT22;61465;53.652;9.792;2022-07-09T08:55:53;28.10;91.40
30244;DHT22;61465;53.652;9.792;2022-07-09T08:58:19;28.40;90.50
30244;DHT22;61465;53.652;9.792;2022-07-09T09:00:45;28.80;90.20
30244;DHT22;61465;53.652;9.792;2022-07-09T09:03:13;28.40;88.90
30244;DHT22;61465;53.652;9.792;2022-07-09T09:05:38;28.30;90.00
30244;DHT22;61465;53.652;9.792;2022-07-09T09:08:20;28.90;90.10
30244;DHT22;61465;53.652;9.792;2022-07-09T09:10:49;29.90;90.50
30244;DHT22;61465;53.652;9.792;2022-07-09T09:13:17;30.60;88.90
30244;DHT22;61465;53.652;9.792;2022-07-09T09:15:43;31.20;88.00
30244;DHT22;61465;53.652;9.792;2022-07-09T09:18:09;30.90;86.80
30244;DHT22;61465;53.652;9.792;2022-07-09T09:20:34;30.90;86.50
30244;DHT22;61465;53.652;9.792;2022-07-09T09:23:00;30.90;86.70
30244;DHT22;61465;53.652;9.792;2022-07-09T09:25:28;31.50;86.20
30244;DHT22;61465;53.652;9.792;2022-07-09T09:27:54;32.20;86.10
30244;DHT22;61465;53.652;9.792;2022-07-09T09:30:20;32.70;90.60
30244;DHT22;61465;53.652;9.792;2022-07-09T09:32:57;33.20;86.20
30244;DHT22;61465;53.652;9.792;2022-07-09T09:35:24;33.40;86.70
30244;DHT22;61465;53.652;9.792;2022-07-09T09:37:51;33.00;83.60
30244;DHT22;61465;53.652;9.792;2022-07-09T09:40:17;32.30;82.20
30244;DHT22;61465;53.652;9.792;2022-07-09T09:42:43;31.70;87.70
30244;DHT22;61465;53.652;9.792;2022-07-09T09:45:13;32.00;83.70
30244;DHT22;61465;53.652;9.792;2022-07-09T09:47:39;32.50;83.00
30244;DHT22;61465;53.652;9.792;2022-07-09T09:50:07;33.10;82.20
30244;DHT22;61465;53.652;9.792;2022-07-09T09:52:38;33.40;81.00
30244;DHT22;61465;53.652;9.792;2022-07-09T09:55:05;33.70;80.70
30244;DHT22;61465;53.652;9.792;2022-07-09T09:57:32;33.70;79.20
30244;DHT22;61465;53.652;9.792;2022-07-09T09:59:58;33.50;79.00
30244;DHT22;61465;53.652;9.792;2022-07-09T10:02:25;33.10;77.70
30244;DHT22;61465;53.652;9.792;2022-07-09T10:04:51;32.80;78.40
30244;DHT22;61465;53.652;9.792;2022-07-09T10:07:16;33.10;78.00
30244;DHT22;61465;53.652;9.792;2022-07-09T10:09:53;33.50;77.80
30244;DHT22;61465;53.652;9.792;2022-07-09T10:12:25;33.90;79.50
30244;DHT22;61465;53.652;9.792;2022-07-09T10:14:58;34.40;78.30
30244;DHT22;61465;53.652;9.792;2022-07-09T10:17:25;34.70;76.30
30244;DHT22;61465;53.652;9.792;2022-07-09T10:19:56;34.90;75.60
30244;DHT22;61465;53.652;9.792;2022-07-09T10:22:34;35.10;75.20
30244;DHT22;61465;53.652;9.792;2022-07-09T10:25:00;34.60;76.10
30244;DHT22;61465;53.652;9.792;2022-07-09T10:27:26;33.90;72.60
30244;DHT22;61465;53.652;9.792;2022-07-09T10:29:54;33.30;72.10
30244;DHT22;61465;53.652;9.792;2022-07-09T10:32:30;32.60;71.90
30244;DHT22;61465;53.652;9.792;2022-07-09T10:35:05;31.80;72.80
30244;DHT22;61465;53.652;9.792;2022-07-09T10:40:03;30.40;71.10
30244;DHT22;61465;53.652;9.792;2022-07-09T10:42:29;29.90;71.20
30244;DHT22;61465;53.652;9.792;2022-07-09T10:44:55;29.50;71.20
30244;DHT22;61465;53.652;9.792;2022-07-09T10:47:20;29.10;71.20
30244;DHT22;61465;53.652;9.792;2022-07-09T10:49:46;28.70;71.10
30244;DHT22;61465;53.652;9.792;2022-07-09T10:52:12;28.40;71.70
30244;DHT22;61465;53.652;9.792;2022-07-09T10:54:47;28.10;71.30
30244;DHT22;61465;53.652;9.792;2022-07-09T10:57:14;27.90;72.20
30244;DHT22;61465;53.652;9.792;2022-07-09T10:59:45;27.80;71.70
30244;DHT22;61465;53.652;9.792;2022-07-09T11:02:19;27.50;72.30
30244;DHT22;61465;53.652;9.792;2022-07-09T11:04:48;27.50;72.60
30244;DHT22;61465;53.652;9.792;2022-07-09T11:07:22;27.40;72.40
30244;DHT22;61465;53.652;9.792;2022-07-09T11:09:48;27.30;72.70
30244;DHT22;61465;53.652;9.792;2022-07-09T11:12:21;27.30;72.40
30244;DHT22;61465;53.652;9.792;2022-07-09T11:14:48;27.40;73.00
30244;DHT22;61465;53.652;9.792;2022-07-09T11:17:18;27.40;72.20
30244;DHT22;61465;53.652;9.792;2022-07-09T11:19:45;27.40;72.40
30244;DHT22;61465;53.652;9.792;2022-07-09T11:22:11;27.50;72.30
30244;DHT22;61465;53.652;9.792;2022-07-09T11:24:36;27.50;71.90
30244;DHT22;61465;53.652;9.792;2022-07-09T11:27:03;27.50;71.70
30244;DHT22;61465;53.652;9.792;2022-07-09T11:29:29;27.40;71.10
30244;DHT22;61465;53.652;9.792;2022-07-09T11:31:56;27.30;70.60
30244;DHT22;61465;53.652;9.792;2022-07-09T11:34:21;27.10;70.20
30244;DHT22;61465;53.652;9.792;2022-07-09T11:36:50;27.00;70.20
30244;DHT22;61465;53.652;9.792;2022-07-09T11:41:56;26.70;70.40
30244;DHT22;61465;53.652;9.792;2022-07-09T11:47:12;26.50;70.10
30244;DHT22;61465;53.652;9.792;2022-07-09T11:49:44;26.50;71.30
30244;DHT22;61465;53.652;9.792;2022-07-09T11:52:25;26.50;70.20
30244;DHT22;61465;53.652;9.792;2022-07-09T11:55:01;26.40;70.30
30244;DHT22;61465;53.652;9.792;2022-07-09T11:57:28;26.20;69.80
30244;DHT22;61465;53.652;9.792;2022-07-09T11:59:55;26.00;68.80
30244;DHT22;61465;53.652;9.792;2022-07-09T12:02:34;25.90;69.20
30244;DHT22;61465;53.652;9.792;2022-07-09T12:05:02;25.80;69.70
30244;DHT22;61465;53.652;9.792;2022-07-09T12:07:31;25.80;69.30
30244;DHT22;61465;53.652;9.792;2022-07-09T12:10:04;25.70;69.00
30244;DHT22;61465;53.652;9.792;2022-07-09T12:12:31;25.60;68.90
30244;DHT22;61465;53.652;9.792;2022-07-09T12:14:57;25.50;68.70
30244;DHT22;61465;53.652;9.792;2022-07-09T12:17:27;25.30;69.40
30244;DHT22;61465;53.652;9.792;2022-07-09T12:19:54;25.20;68.70
30244;DHT22;61465;53.652;9.792;2022-07-09T12:22:20;25.10;68.70
30244;DHT22;61465;53.652;9.792;2022-07-09T12:24:46;25.00;68.50
30244;DHT22;61465;53.652;9.792;2022-07-09T12:27:12;25.00;68.50
30244;DHT22;61465;53.652;9.792;2022-07-09T12:29:38;24.90;68.20
30244;DHT22;61465;53.652;9.792;2022-07-09T12:32:04;24.70;68.20
30244;DHT22;61465;53.652;9.792;2022-07-09T12:34:30;24.70;68.30
30244;DHT22;61465;53.652;9.792;2022-07-09T12:36:57;24.60;68.30
30244;DHT22;61465;53.652;9.792;2022-07-09T12:39:22;24.50;67.90
30244;DHT22;61465;53.652;9.792;2022-07-09T12:41:48;24.40;67.70
30244;DHT22;61465;53.652;9.792;2022-07-09T12:44:13;24.30;67.40
30244;DHT22;61465;53.652;9.792;2022-07-09T12:46:39;24.20;67.20
30244;DHT22;61465;53.652;9.792;2022-07-09T12:49:05;24.10;67.00
30244;DHT22;61465;53.652;9.792;2022-07-09T12:51:31;24.00;66.80
30244;DHT22;61465;53.652;9.792;2022-07-09T12:53:56;23.90;66.70
30244;DHT22;61465;53.652;9.792;2022-07-09T12:56:22;23.80;66.50
30244;DHT22;61465;53.652;9.792;2022-07-09T12:58:48;23.70;66.30
30244;DHT22;61465;53.652;9.792;2022-07-09T13:01:13;23.60;66.40
30244;DHT22;61465;53.652;9.792;2022-07-09T13:03:39;23.50;66.20
30244;DHT22;61465;53.652;9.792;2022-07-09T13:06:04;23.40;66.00
30244;DHT22;61465;53.652;9.792;2022-07-09T13:08:50;23.30;65.80
30244;DHT22;61465;53.652;9.792;2022-07-09T13:11:16;23.10;65.80
30244;DHT22;61465;53.652;9.792;2022-07-09T13:13:41;23.10;65.90
30244;DHT22;61465;53.652;9.792;2022-07-09T13:16:07;23.00;66.10
30244;DHT22;61465;53.652;9.792;2022-07-09T13:18:32;23.00;66.10
30244;DHT22;61465;53.652;9.792;2022-07-09T13:20:58;23.00;65.70
30244;DHT22;61465;53.652;9.792;2022-07-09T13:23:24;22.90;65.50
30244;DHT22;61465;53.652;9.792;2022-07-09T13:25:49;22.80;65.50
30244;DHT22;61465;53.652;9.792;2022-07-09T13:28:15;22.80;65.70
30244;DHT22;61465;53.652;9.792;2022-07-09T13:30:40;22.70;65.40
30244;DHT22;61465;53.652;9.792;2022-07-09T13:33:06;22.80;65.60
30244;DHT22;61465;53.652;9.792;2022-07-09T13:35:32;22.80;65.50
30244;DHT22;61465;53.652;9.792;2022-07-09T13:37:57;22.90;65.50
30244;DHT22;61465;53.652;9.792;2022-07-09T13:40:23;22.90;65.30
30244;DHT22;61465;53.652;9.792;2022-07-09T13:42:48;22.90;64.90
30244;DHT22;61465;53.652;9.792;2022-07-09T13:45:14;22.80;64.80
30244;DHT22;61465;53.652;9.792;2022-07-09T13:47:39;22.80;65.20
30244;DHT22;61465;53.652;9.792;2022-07-09T13:50:05;22.80;65.30
30244;DHT22;61465;53.652;9.792;2022-07-09T13:52:31;22.90;65.30
30244;DHT22;61465;53.652;9.792;2022-07-09T13:54:57;22.80;65.20
30244;DHT22;61465;53.652;9.792;2022-07-09T13:57:22;22.80;64.90
30244;DHT22;61465;53.652;9.792;2022-07-09T13:59:48;22.80;64.90
30244;DHT22;61465;53.652;9.792;2022-07-09T14:02:13;22.70;64.90
30244;DHT22;61465;53.652;9.792;2022-07-09T14:04:39;22.60;64.80
30244;DHT22;61465;53.652;9.792;2022-07-09T14:07:04;22.50;64.80
30244;DHT22;61465;53.652;9.792;2022-07-09T14:09:30;22.40;64.80
30244;DHT22;61465;53.652;9.792;2022-07-09T14:11:55;22.30;64.60
30244;DHT22;61465;53.652;9.792;2022-07-09T14:14:21;22.20;64.40
30244;DHT22;61465;53.652;9.792;2022-07-09T14:16:46;22.20;64.50
30244;DHT22;61465;53.652;9.792;2022-07-09T14:19:12;22.10;64.50
30244;DHT22;61465;53.652;9.792;2022-07-09T14:21:38;22.10;64.50
30244;DHT22;61465;53.652;9.792;2022-07-09T14:24:04;22.10;64.80
30244;DHT22;61465;53.652;9.792;2022-07-09T14:26:29;22.10;64.70
30244;DHT22;61465;53.652;9.792;2022-07-09T14:28:55;22.00;64.70
30244;DHT22;61465;53.652;9.792;2022-07-09T14:31:20;22.00;64.90
30244;DHT22;61465;53.652;9.792;2022-07-09T14:33:46;22.00;65.00
30244;DHT22;61465;53.652;9.792;2022-07-09T14:36:12;22.00;65.00
30244;DHT22;61465;53.652;9.792;2022-07-09T14:38:37;22.00;65.00
30244;DHT22;61465;53.652;9.792;2022-07-09T14:41:03;22.00;65.00
30244;DHT22;61465;53.652;9.792;2022-07-09T14:43:29;22.00;64.60
30244;DHT22;61465;53.652;9.792;2022-07-09T14:45:54;21.90;64.80
30244;DHT22;61465;53.652;9.792;2022-07-09T14:48:20;21.90;64.60
30244;DHT22;61465;53.652;9.792;2022-07-09T14:50:45;21.90;64.50
30244;DHT22;61465;53.652;9.792;2022-07-09T14:53:11;21.90;64.40
30244;DHT22;61465;53.652;9.792;2022-07-09T14:55:36;21.80;64.20
30244;DHT22;61465;53.652;9.792;2022-07-09T14:58:09;21.70;63.90
30244;DHT22;61465;53.652;9.792;2022-07-09T15:00:35;21.70;63.70
30244;DHT22;61465;53.652;9.792;2022-07-09T15:03:01;21.60;63.60
30244;DHT22;61465;53.652;9.792;2022-07-09T15:05:26;21.50;63.20
30244;DHT22;61465;53.652;9.792;2022-07-09T15:07:52;21.50;63.30
30244;DHT22;61465;53.652;9.792;2022-07-09T15:10:17;21.50;63.30
30244;DHT22;61465;53.652;9.792;2022-07-09T15:12:43;21.40;62.90
30244;DHT22;61465;53.652;9.792;2022-07-09T15:15:08;21.30;62.90
30244;DHT22;61465;53.652;9.792;2022-07-09T15:17:34;21.30;63.00
30244;DHT22;61465;53.652;9.792;2022-07-09T15:20:00;21.30;62.90
30244;DHT22;61465;53.652;9.792;2022-07-09T15:22:25;21.30;63.20
30244;DHT22;61465;53.652;9.792;2022-07-09T15:24:51;21.30;63.30
30244;DHT22;61465;53.652;9.792;2022-07-09T15:27:17;21.30;63.40
30244;DHT22;61465;53.652;9.792;2022-07-09T15:29:43;21.30;63.50
30244;DHT22;61465;53.652;9.792;2022-07-09T15:32:09;21.30;63.40
30244;DHT22;61465;53.652;9.792;2022-07-09T15:34:34;21.30;63.60